sensor_id;sensor_type;location;lat;lon;timestamp;temperature;humidity
17296;DHT22;8766;51.480;6.872;2023-01-30T00:00:51;4.80;74.70
17296;DHT22;8766;51.480;6.872;2023-01-30T00:03:18;4.80;74.70
17296;DHT22;8766;51.480;6.872;2023-01-30T00:05:45;4.80;74.60
17296;DHT22;8766;51.480;6.872;2023-01-30T00:08:14;4.80;74.60
17296;DHT22;8766;51.480;6.872;2023-01-30T00:10:41;4.80;74.60
17296;DHT22;8766;51.480;6.872;2023-01-30T00:13:08;4.80;74.60
17296;DHT22;8766;51.480;6.872;2023-01-30T00:15:35;4.80;74.60
17296;DHT22;8766;51.480;6.872;2023-01-30T00:18:02;4.90;74.60
17296;DHT22;8766;51.480;6.872;2023-01-30T00:20:29;4.90;74.70
17296;DHT22;8766;51.480;6.872;2023-01-30T00:22:56;4.90;74.60
17296;DHT22;8766;51.480;6.872;2023-01-30T00:25:25;4.90;74.60
17296;DHT22;8766;51.480;6.872;2023-01-30T00:27:52;4.90;74.60
17296;DHT22;8766;51.480;6.872;2023-01-30T00:30:19;5.00;74.60
17296;DHT22;8766;51.480;6.872;2023-01-30T00:32:46;5.00;74.60
17296;DHT22;8766;51.480;6.872;2023-01-30T00:35:13;5.00;74.60
17296;DHT22;8766;51.480;6.872;2023-01-30T00:37:40;5.00;74.60
17296;DHT22;8766;51.480;6.872;2023-01-30T00:40:08;5.00;74.60
17296;DHT22;8766;51.480;6.872;2023-01-30T00:42:36;5.00;74.60
17296;DHT22;8766;51.480;6.872;2023-01-30T00:45:21;5.00;74.60
17296;DHT22;8766;51.480;6.872;2023-01-30T00:48:06;5.00;74.50
17296;DHT22;8766;51.480;6.872;2023-01-30T00:50:32;5.00;74.50
17296;DHT22;8766;51.480;6.872;2023-01-30T00:53:09;5.00;74.50
17296;DHT22;8766;51.480;6.872;2023-01-30T00:55:36;5.10;74.60
17296;DHT22;8766;51.480;6.872;2023-01-30T00:58:04;5.10;74.50
17296;DHT22;8766;51.480;6.872;2023-01-30T01:00:32;5.10;74.60
17296;DHT22;8766;51.480;6.872;2023-01-30T01:02:59;5.10;74.60
17296;DHT22;8766;51.480;6.872;2023-01-30T01:05:26;5.10;74.50
17296;DHT22;8766;51.480;6.872;2023-01-30T01:07:53;5.20;74.60
17296;DHT22;8766;51.480;6.872;2023-01-30T01:10:20;5.10;74.50
17296;DHT22;8766;51.480;6.872;2023-01-30T01:12:48;5.10;74.50
17296;DHT22;8766;51.480;6.872;2023-01-30T01:15:18;5.10;74.50
17296;DHT22;8766;51.480;6.872;2023-01-30T01:17:46;5.20;74.50
17296;DHT22;8766;51.480;6.872;2023-01-30T01:20:14;5.20;74.50
17296;DHT22;8766;51.480;6.872;2023-01-30T01:22:41;5.20;74.50
17296;DHT22;8766;51.480;6.872;2023-01-30T01:25:08;5.20;74.50
17296;DHT22;8766;51.480;6.872;2023-01-30T01:27:36;5.20;74.50
17296;DHT22;8766;51.480;6.872;2023-01-30T01:30:04;5.20;74.50
17296;DHT22;8766;51.480;6.872;2023-01-30T01:32:32;5.20;74.50
17296;DHT22;8766;51.480;6.872;2023-01-30T01:34:59;5.30;74.60
17296;DHT22;8766;51.480;6.872;2023-01-30T01:37:26;5.30;74.60
17296;DHT22;8766;51.480;6.872;2023-01-30T01:39:53;5.30;74.60
17296;DHT22;8766;51.480;6.872;2023-01-30T01:42:37;5.30;74.50
17296;DHT22;8766;51.480;6.872;2023-01-30T01:45:14;5.30;74.50
17296;DHT22;8766;51.480;6.872;2023-01-30T01:47:56;5.30;74.50
17296;DHT22;8766;51.480;6.872;2023-01-30T01:50:27;5.30;74.50
17296;DHT22;8766;51.480;6.872;2023-01-30T01:52:58;5.30;74.50
17296;DHT22;8766;51.480;6.872;2023-01-30T01:55:27;5.30;74.50
17296;DHT22;8766;51.480;6.872;2023-01-30T01:57:57;5.40;74.60
17296;DHT22;8766;51.480;6.872;2023-01-30T02:00:25;5.40;74.60
17296;DHT22;8766;51.480;6.872;2023-01-30T02:02:56;5.40;74.50
17296;DHT22;8766;51.480;6.872;2023-01-30T02:05:25;5.40;74.60
17296;DHT22;8766;51.480;6.872;2023-01-30T02:07:58;5.40;74.50
17296;DHT22;8766;51.480;6.872;2023-01-30T02:10:31;5.40;74.60
17296;DHT22;8766;51.480;6.872;2023-01-30T02:13:00;5.40;74.50
17296;DHT22;8766;51.480;6.872;2023-01-30T02:15:27;5.50;74.50
17296;DHT22;8766;51.480;6.872;2023-01-30T02:17:55;5.50;74.50
17296;DHT22;8766;51.480;6.872;2023-01-30T02:20:28;5.50;74.50
17296;DHT22;8766;51.480;6.872;2023-01-30T02:23:32;5.50;74.50
17296;DHT22;8766;51.480;6.872;2023-01-30T02:32:08;5.60;74.50
17296;DHT22;8766;51.480;6.872;2023-01-30T02:34:44;5.50;74.30
17296;DHT22;8766;51.480;6.872;2023-01-30T02:37:26;5.60;74.40
17296;DHT22;8766;51.480;6.872;2023-01-30T02:40:09;5.60;74.40
17296;DHT22;8766;51.480;6.872;2023-01-30T02:42:41;5.60;74.40
17296;DHT22;8766;51.480;6.872;2023-01-30T02:45:16;5.60;74.30
17296;DHT22;8766;51.480;6.872;2023-01-30T02:47:52;5.60;74.40
17296;DHT22;8766;51.480;6.872;2023-01-30T02:50:24;5.70;74.40
17296;DHT22;8766;51.480;6.872;2023-01-30T02:52:52;5.70;74.40
17296;DHT22;8766;51.480;6.872;2023-01-30T02:55:21;5.70;74.40
17296;DHT22;8766;51.480;6.872;2023-01-30T02:57:48;5.70;74.40
17296;DHT22;8766;51.480;6.872;2023-01-30T03:00:18;5.70;74.40
17296;DHT22;8766;51.480;6.872;2023-01-30T03:03:13;5.70;74.40
17296;DHT22;8766;51.480;6.872;2023-01-30T03:06:02;5.80;74.50
17296;DHT22;8766;51.480;6.872;2023-01-30T03:08:38;5.80;74.40
17296;DHT22;8766;51.480;6.872;2023-01-30T03:11:08;5.80;74.40
17296;DHT22;8766;51.480;6.872;2023-01-30T03:13:45;5.80;74.40
17296;DHT22;8766;51.480;6.872;2023-01-30T03:16:18;5.80;74.40
17296;DHT22;8766;51.480;6.872;2023-01-30T03:18:48;5.80;74.40
17296;DHT22;8766;51.480;6.872;2023-01-30T03:21:15;5.80;74.40
17296;DHT22;8766;51.480;6.872;2023-01-30T03:23:43;5.90;74.40
17296;DHT22;8766;51.480;6.872;2023-01-30T03:26:14;5.90;74.40
17296;DHT22;8766;51.480;6.872;2023-01-30T03:28:43;5.90;74.40
17296;DHT22;8766;51.480;6.872;2023-01-30T03:31:10;5.90;74.40
17296;DHT22;8766;51.480;6.872;2023-01-30T03:33:37;5.90;74.40
17296;DHT22;8766;51.480;6.872;2023-01-30T03:36:06;5.90;74.40
17296;DHT22;8766;51.480;6.872;2023-01-30T03:38:33;5.90;74.40
17296;DHT22;8766;51.480;6.872;2023-01-30T03:41:01;5.90;74.30
17296;DHT22;8766;51.480;6.872;2023-01-30T03:43:28;6.00;74.40
17296;DHT22;8766;51.480;6.872;2023-01-30T03:45:55;6.00;74.40
17296;DHT22;8766;51.480;6.872;2023-01-30T03:48:22;6.00;74.40
17296;DHT22;8766;51.480;6.872;2023-01-30T03:50:49;6.00;74.40
17296;DHT22;8766;51.480;6.872;2023-01-30T03:53:17;6.00;74.50
17296;DHT22;8766;51.480;6.872;2023-01-30T03:55:44;6.00;74.40
17296;DHT22;8766;51.480;6.872;2023-01-30T03:58:11;6.00;74.40
17296;DHT22;8766;51.480;6.872;2023-01-30T04:00:37;6.00;74.40
17296;DHT22;8766;51.480;6.872;2023-01-30T04:03:04;6.00;74.40
17296;DHT22;8766;51.480;6.872;2023-01-30T04:05:32;6.10;74.50
17296;DHT22;8766;51.480;6.872;2023-01-30T04:07:59;6.00;74.50
17296;DHT22;8766;51.480;6.872;2023-01-30T04:10:27;6.00;74.50
17296;DHT22;8766;51.480;6.872;2023-01-30T04:12:54;6.10;74.60
17296;DHT22;8766;51.480;6.872;2023-01-30T04:15:21;6.10;74.60
17296;DHT22;8766;51.480;6.872;2023-01-30T04:17:47;6.10;74.60
17296;DHT22;8766;51.480;6.872;2023-01-30T04:20:15;6.10;74.60
17296;DHT22;8766;51.480;6.872;2023-01-30T04:22:42;6.10;74.60
17296;DHT22;8766;51.480;6.872;2023-01-30T04:25:09;6.10;74.60
17296;DHT22;8766;51.480;6.872;2023-01-30T04:27:37;6.10;74.60
17296;DHT22;8766;51.480;6.872;2023-01-30T04:30:05;6.10;74.60
17296;DHT22;8766;51.480;6.872;2023-01-30T04:32:32;6.10;74.60
17296;DHT22;8766;51.480;6.872;2023-01-30T04:34:59;6.10;74.60
17296;DHT22;8766;51.480;6.872;2023-01-30T04:37:26;6.10;74.60
17296;DHT22;8766;51.480;6.872;2023-01-30T04:39:52;6.20;74.70
17296;DHT22;8766;51.480;6.872;2023-01-30T04:42:19;6.10;74.70
17296;DHT22;8766;51.480;6.872;2023-01-30T04:44:47;6.10;74.70
17296;DHT22;8766;51.480;6.872;2023-01-30T04:47:15;6.20;74.80
17296;DHT22;8766;51.480;6.872;2023-01-30T04:49:42;6.20;74.80
17296;DHT22;8766;51.480;6.872;2023-01-30T04:52:09;6.20;74.80
17296;DHT22;8766;51.480;6.872;2023-01-30T04:54:35;6.20;74.80
17296;DHT22;8766;51.480;6.872;2023-01-30T04:57:02;6.20;74.80
17296;DHT22;8766;51.480;6.872;2023-01-30T04:59:29;6.20;74.80
17296;DHT22;8766;51.480;6.872;2023-01-30T05:01:58;6.20;74.80
17296;DHT22;8766;51.480;6.872;2023-01-30T05:04:25;6.20;74.80
17296;DHT22;8766;51.480;6.872;2023-01-30T05:06:51;6.30;74.90
17296;DHT22;8766;51.480;6.872;2023-01-30T05:09:18;6.30;74.90
17296;DHT22;8766;51.480;6.872;2023-01-30T05:11:45;6.30;74.90
17296;DHT22;8766;51.480;6.872;2023-01-30T05:14:12;6.30;74.90
17296;DHT22;8766;51.480;6.872;2023-01-30T05:16:39;6.30;74.90
17296;DHT22;8766;51.480;6.872;2023-01-30T05:19:09;6.30;74.90
17296;DHT22;8766;51.480;6.872;2023-01-30T05:21:36;6.30;74.90
17296;DHT22;8766;51.480;6.872;2023-01-30T05:24:03;6.30;74.80
17296;DHT22;8766;51.480;6.872;2023-01-30T05:26:30;6.40;74.90
17296;DHT22;8766;51.480;6.872;2023-01-30T05:28:58;6.30;74.80
17296;DHT22;8766;51.480;6.872;2023-01-30T05:31:25;6.30;74.80
17296;DHT22;8766;51.480;6.872;2023-01-30T05:33:52;6.40;74.90
17296;DHT22;8766;51.480;6.872;2023-01-30T05:36:22;6.40;74.90
17296;DHT22;8766;51.480;6.872;2023-01-30T05:38:49;6.40;74.90
17296;DHT22;8766;51.480;6.872;2023-01-30T05:41:16;6.40;74.90
17296;DHT22;8766;51.480;6.872;2023-01-30T05:43:43;6.40;74.90
17296;DHT22;8766;51.480;6.872;2023-01-30T05:46:12;6.40;74.90
17296;DHT22;8766;51.480;6.872;2023-01-30T05:48:39;6.40;74.80
17296;DHT22;8766;51.480;6.872;2023-01-30T05:51:13;6.50;74.90
17296;DHT22;8766;51.480;6.872;2023-01-30T05:53:42;6.40;74.80
17296;DHT22;8766;51.480;6.872;2023-01-30T05:56:09;6.50;74.90
17296;DHT22;8766;51.480;6.872;2023-01-30T05:58:36;6.50;74.90
17296;DHT22;8766;51.480;6.872;2023-01-30T06:01:04;6.50;74.80
17296;DHT22;8766;51.480;6.872;2023-01-30T06:03:31;6.50;74.80
17296;DHT22;8766;51.480;6.872;2023-01-30T06:06:00;6.50;74.80
17296;DHT22;8766;51.480;6.872;2023-01-30T06:08:27;6.50;74.80
17296;DHT22;8766;51.480;6.872;2023-01-30T06:10:58;6.50;74.80
17296;DHT22;8766;51.480;6.872;2023-01-30T06:13:26;6.60;74.90
17296;DHT22;8766;51.480;6.872;2023-01-30T06:15:52;6.60;74.90
17296;DHT22;8766;51.480;6.872;2023-01-30T06:18:19;6.60;74.90
17296;DHT22;8766;51.480;6.872;2023-01-30T06:20:46;6.60;75.50
17296;DHT22;8766;51.480;6.872;2023-01-30T06:23:14;6.60;74.90
17296;DHT22;8766;51.480;6.872;2023-01-30T06:25:42;6.60;74.90
17296;DHT22;8766;51.480;6.872;2023-01-30T06:28:11;6.60;74.90
17296;DHT22;8766;51.480;6.872;2023-01-30T06:30:38;6.70;74.90
17296;DHT22;8766;51.480;6.872;2023-01-30T06:33:05;6.70;74.90
17296;DHT22;8766;51.480;6.872;2023-01-30T06:35:33;6.70;74.90
17296;DHT22;8766;51.480;6.872;2023-01-30T06:38:00;6.70;74.80
17296;DHT22;8766;51.480;6.872;2023-01-30T06:40:26;6.70;74.90
17296;DHT22;8766;51.480;6.872;2023-01-30T06:42:53;6.70;74.80
17296;DHT22;8766;51.480;6.872;2023-01-30T06:45:22;6.70;74.90
17296;DHT22;8766;51.480;6.872;2023-01-30T06:47:50;6.80;75.00
17296;DHT22;8766;51.480;6.872;2023-01-30T06:50:19;6.80;75.00
17296;DHT22;8766;51.480;6.872;2023-01-30T06:52:48;6.80;75.00
17296;DHT22;8766;51.480;6.872;2023-01-30T06:55:17;6.80;75.00
17296;DHT22;8766;51.480;6.872;2023-01-30T06:57:44;6.90;75.00
17296;DHT22;8766;51.480;6.872;2023-01-30T07:00:14;6.80;74.90
17296;DHT22;8766;51.480;6.872;2023-01-30T07:02:43;6.90;74.90
17296;DHT22;8766;51.480;6.872;2023-01-30T07:05:10;6.90;74.90
17296;DHT22;8766;51.480;6.872;2023-01-30T07:07:37;6.90;74.90
17296;DHT22;8766;51.480;6.872;2023-01-30T07:10:07;6.90;74.90
17296;DHT22;8766;51.480;6.872;2023-01-30T07:12:34;6.90;74.90
17296;DHT22;8766;51.480;6.872;2023-01-30T07:15:02;6.90;74.90
17296;DHT22;8766;51.480;6.872;2023-01-30T07:17:29;6.90;74.90
17296;DHT22;8766;51.480;6.872;2023-01-30T07:19:57;6.90;74.90
17296;DHT22;8766;51.480;6.872;2023-01-30T07:22:24;7.00;75.00
17296;DHT22;8766;51.480;6.872;2023-01-30T07:24:51;7.00;74.90
17296;DHT22;8766;51.480;6.872;2023-01-30T07:27:18;7.00;74.90
17296;DHT22;8766;51.480;6.872;2023-01-30T07:29:45;7.00;74.90
17296;DHT22;8766;51.480;6.872;2023-01-30T07:32:15;7.00;74.90
17296;DHT22;8766;51.480;6.872;2023-01-30T07:34:43;7.00;75.10
17296;DHT22;8766;51.480;6.872;2023-01-30T07:37:11;6.90;75.10
17296;DHT22;8766;51.480;6.872;2023-01-30T07:39:38;6.90;75.30
17296;DHT22;8766;51.480;6.872;2023-01-30T07:42:05;6.90;75.40
17296;DHT22;8766;51.480;6.872;2023-01-30T07:44:32;6.90;75.50
17296;DHT22;8766;51.480;6.872;2023-01-30T07:46:59;6.90;75.50
17296;DHT22;8766;51.480;6.872;2023-01-30T07:49:26;6.90;75.60
17296;DHT22;8766;51.480;6.872;2023-01-30T07:51:53;6.90;75.60
17296;DHT22;8766;51.480;6.872;2023-01-30T07:54:21;6.90;75.50
17296;DHT22;8766;51.480;6.872;2023-01-30T07:56:48;7.00;75.30
17296;DHT22;8766;51.480;6.872;2023-01-30T07:59:15;7.10;75.30
17296;DHT22;8766;51.480;6.872;2023-01-30T08:01:42;7.00;75.10
17296;DHT22;8766;51.480;6.872;2023-01-30T08:04:09;7.10;75.30
17296;DHT22;8766;51.480;6.872;2023-01-30T08:06:36;7.10;75.30
17296;DHT22;8766;51.480;6.872;2023-01-30T08:09:04;7.00;75.20
17296;DHT22;8766;51.480;6.872;2023-01-30T08:11:32;7.00;75.40
17296;DHT22;8766;51.480;6.872;2023-01-30T08:13:59;7.10;75.60
17296;DHT22;8766;51.480;6.872;2023-01-30T08:16:26;7.20;75.40
17296;DHT22;8766;51.480;6.872;2023-01-30T08:18:53;7.30;75.00
17296;DHT22;8766;51.480;6.872;2023-01-30T08:21:20;7.40;74.80
17296;DHT22;8766;51.480;6.872;2023-01-30T08:23:47;7.40;74.70
17296;DHT22;8766;51.480;6.872;2023-01-30T08:26:14;7.40;74.70
17296;DHT22;8766;51.480;6.872;2023-01-30T08:28:42;7.40;74.80
17296;DHT22;8766;51.480;6.872;2023-01-30T08:31:09;7.40;74.80
17296;DHT22;8766;51.480;6.872;2023-01-30T08:33:37;7.40;74.90
17296;DHT22;8766;51.480;6.872;2023-01-30T08:36:04;7.30;74.90
17296;DHT22;8766;51.480;6.872;2023-01-30T08:38:31;7.30;75.00
17296;DHT22;8766;51.480;6.872;2023-01-30T08:40:58;7.30;75.00
17296;DHT22;8766;51.480;6.872;2023-01-30T08:43:29;7.40;75.10
17296;DHT22;8766;51.480;6.872;2023-01-30T08:46:04;7.40;75.00
17296;DHT22;8766;51.480;6.872;2023-01-30T08:48:31;7.40;75.00
17296;DHT22;8766;51.480;6.872;2023-01-30T08:50:58;7.40;75.00
17296;DHT22;8766;51.480;6.872;2023-01-30T08:53:25;7.40;75.00
17296;DHT22;8766;51.480;6.872;2023-01-30T08:55:53;7.40;74.90
17296;DHT22;8766;51.480;6.872;2023-01-30T08:58:20;7.40;74.90
17296;DHT22;8766;51.480;6.872;2023-01-30T09:00:48;7.50;74.90
17296;DHT22;8766;51.480;6.872;2023-01-30T09:03:17;7.50;74.80
17296;DHT22;8766;51.480;6.872;2023-01-30T09:05:44;7.60;74.80
17296;DHT22;8766;51.480;6.872;2023-01-30T09:08:11;7.60;74.80
17296;DHT22;8766;51.480;6.872;2023-01-30T09:10:38;7.60;74.70
17296;DHT22;8766;51.480;6.872;2023-01-30T09:13:08;7.60;74.60
17296;DHT22;8766;51.480;6.872;2023-01-30T09:15:35;7.60;74.70
17296;DHT22;8766;51.480;6.872;2023-01-30T09:18:02;7.70;74.80
17296;DHT22;8766;51.480;6.872;2023-01-30T09:20:31;7.70;74.70
17296;DHT22;8766;51.480;6.872;2023-01-30T09:22:58;7.70;74.60
17296;DHT22;8766;51.480;6.872;2023-01-30T09:25:25;7.70;75.20
17296;DHT22;8766;51.480;6.872;2023-01-30T09:27:52;7.80;74.50
17296;DHT22;8766;51.480;6.872;2023-01-30T09:30:19;7.90;74.40
17296;DHT22;8766;51.480;6.872;2023-01-30T09:32:47;7.90;74.20
17296;DHT22;8766;51.480;6.872;2023-01-30T09:35:14;7.90;74.20
17296;DHT22;8766;51.480;6.872;2023-01-30T09:37:47;7.90;74.10
17296;DHT22;8766;51.480;6.872;2023-01-30T09:40:15;7.90;74.20
17296;DHT22;8766;51.480;6.872;2023-01-30T09:42:53;7.90;74.20
17296;DHT22;8766;51.480;6.872;2023-01-30T09:48:17;8.10;74.10
17296;DHT22;8766;51.480;6.872;2023-01-30T09:51:05;8.10;74.00
17296;DHT22;8766;51.480;6.872;2023-01-30T09:53:47;8.00;74.00
17296;DHT22;8766;51.480;6.872;2023-01-30T09:56:16;8.00;74.00
17296;DHT22;8766;51.480;6.872;2023-01-30T09:58:46;8.00;74.10
17296;DHT22;8766;51.480;6.872;2023-01-30T10:01:21;8.00;74.20
17296;DHT22;8766;51.480;6.872;2023-01-30T10:03:57;7.90;74.20
17296;DHT22;8766;51.480;6.872;2023-01-30T10:06:28;7.90;74.40
17296;DHT22;8766;51.480;6.872;2023-01-30T10:09:01;7.90;74.40
17296;DHT22;8766;51.480;6.872;2023-01-30T10:11:45;7.90;74.50
17296;DHT22;8766;51.480;6.872;2023-01-30T10:14:31;7.90;74.50
17296;DHT22;8766;51.480;6.872;2023-01-30T10:20:14;8.10;74.20
17296;DHT22;8766;51.480;6.872;2023-01-30T10:22:48;8.20;73.80
17296;DHT22;8766;51.480;6.872;2023-01-30T10:25:28;8.30;73.70
17296;DHT22;8766;51.480;6.872;2023-01-30T10:28:00;8.40;73.40
17296;DHT22;8766;51.480;6.872;2023-01-30T10:30:29;8.30;73.40
17296;DHT22;8766;51.480;6.872;2023-01-30T10:32:59;8.30;73.50
17296;DHT22;8766;51.480;6.872;2023-01-30T10:35:31;8.20;73.60
17296;DHT22;8766;51.480;6.872;2023-01-30T10:38:04;8.20;73.70
17296;DHT22;8766;51.480;6.872;2023-01-30T10:40:37;8.20;73.80
17296;DHT22;8766;51.480;6.872;2023-01-30T10:43:12;8.20;73.90
17296;DHT22;8766;51.480;6.872;2023-01-30T10:45:45;8.20;73.90
17296;DHT22;8766;51.480;6.872;2023-01-30T10:48:36;8.20;73.90
17296;DHT22;8766;51.480;6.872;2023-01-30T10:51:14;8.20;74.00
17296;DHT22;8766;51.480;6.872;2023-01-30T10:53:48;8.20;74.00
17296;DHT22;8766;51.480;6.872;2023-01-30T10:56:24;8.20;73.90
17296;DHT22;8766;51.480;6.872;2023-01-30T10:58:59;8.20;74.00
17296;DHT22;8766;51.480;6.872;2023-01-30T11:01:32;8.20;73.90
17296;DHT22;8766;51.480;6.872;2023-01-30T11:04:02;8.20;73.80
17296;DHT22;8766;51.480;6.872;2023-01-30T11:06:31;8.30;73.70
17296;DHT22;8766;51.480;6.872;2023-01-30T11:08:58;8.30;73.60
17296;DHT22;8766;51.480;6.872;2023-01-30T11:11:30;8.40;73.50
17296;DHT22;8766;51.480;6.872;2023-01-30T11:14:03;8.40;73.50
17296;DHT22;8766;51.480;6.872;2023-01-30T11:16:30;8.40;73.60
17296;DHT22;8766;51.480;6.872;2023-01-30T11:19:04;8.30;73.50
17296;DHT22;8766;51.480;6.872;2023-01-30T11:21:31;8.30;73.50
17296;DHT22;8766;51.480;6.872;2023-01-30T11:24:03;8.40;73.50
17296;DHT22;8766;51.480;6.872;2023-01-30T11:29:50;8.50;73.40
17296;DHT22;8766;51.480;6.872;2023-01-30T11:32:29;8.50;73.30
17296;DHT22;8766;51.480;6.872;2023-01-30T11:35:23;8.50;73.30
17296;DHT22;8766;51.480;6.872;2023-01-30T11:37:50;8.50;73.20
17296;DHT22;8766;51.480;6.872;2023-01-30T11:40:23;8.50;73.10
17296;DHT22;8766;51.480;6.872;2023-01-30T11:42:53;8.50;73.10
17296;DHT22;8766;51.480;6.872;2023-01-30T11:45:25;8.60;73.20
17296;DHT22;8766;51.480;6.872;2023-01-30T11:47:57;8.60;73.10
17296;DHT22;8766;51.480;6.872;2023-01-30T11:50:29;8.70;73.00
17296;DHT22;8766;51.480;6.872;2023-01-30T11:53:01;8.70;72.90
17296;DHT22;8766;51.480;6.872;2023-01-30T11:55:34;8.70;72.80
17296;DHT22;8766;51.480;6.872;2023-01-30T11:58:07;8.80;72.90
17296;DHT22;8766;51.480;6.872;2023-01-30T12:00:39;8.80;72.80
17296;DHT22;8766;51.480;6.872;2023-01-30T12:03:10;8.90;72.70
17296;DHT22;8766;51.480;6.872;2023-01-30T12:05:45;8.90;72.50
17296;DHT22;8766;51.480;6.872;2023-01-30T12:08:22;8.90;72.50
17296;DHT22;8766;51.480;6.872;2023-01-30T12:10:52;8.90;72.60
17296;DHT22;8766;51.480;6.872;2023-01-30T12:13:23;8.90;72.60
17296;DHT22;8766;51.480;6.872;2023-01-30T12:16:01;8.90;72.70
17296;DHT22;8766;51.480;6.872;2023-01-30T12:18:36;8.90;72.70
17296;DHT22;8766;51.480;6.872;2023-01-30T12:21:10;8.90;72.60
17296;DHT22;8766;51.480;6.872;2023-01-30T12:23:41;8.90;72.60
17296;DHT22;8766;51.480;6.872;2023-01-30T12:26:12;8.90;72.70
17296;DHT22;8766;51.480;6.872;2023-01-30T12:28:45;8.90;72.70
17296;DHT22;8766;51.480;6.872;2023-01-30T12:31:18;8.90;73.50
17296;DHT22;8766;51.480;6.872;2023-01-30T12:33:47;8.80;72.80
17296;DHT22;8766;51.480;6.872;2023-01-30T12:36:22;8.80;72.90
17296;DHT22;8766;51.480;6.872;2023-01-30T12:39:13;8.80;73.00
17296;DHT22;8766;51.480;6.872;2023-01-30T12:44:49;9.00;72.50
17296;DHT22;8766;51.480;6.872;2023-01-30T12:47:58;9.10;72.20
17296;DHT22;8766;51.480;6.872;2023-01-30T12:50:34;9.20;72.10
17296;DHT22;8766;51.480;6.872;2023-01-30T12:53:25;9.20;72.00
17296;DHT22;8766;51.480;6.872;2023-01-30T12:56:10;9.20;72.10
17296;DHT22;8766;51.480;6.872;2023-01-30T12:58:45;9.20;72.10
17296;DHT22;8766;51.480;6.872;2023-01-30T13:01:21;9.20;72.10
17296;DHT22;8766;51.480;6.872;2023-01-30T13:03:57;9.20;72.10
17296;DHT22;8766;51.480;6.872;2023-01-30T13:06:49;9.10;72.10
17296;DHT22;8766;51.480;6.872;2023-01-30T13:12:26;9.00;72.40
17296;DHT22;8766;51.480;6.872;2023-01-30T13:15:02;9.00;72.40
17296;DHT22;8766;51.480;6.872;2023-01-30T13:17:50;9.00;72.50
17296;DHT22;8766;51.480;6.872;2023-01-30T13:20:36;9.00;72.40
17296;DHT22;8766;51.480;6.872;2023-01-30T13:23:10;9.10;72.30
17296;DHT22;8766;51.480;6.872;2023-01-30T13:25:46;9.20;72.10
17296;DHT22;8766;51.480;6.872;2023-01-30T13:28:18;9.20;72.00
17296;DHT22;8766;51.480;6.872;2023-01-30T13:30:48;9.20;71.90
17296;DHT22;8766;51.480;6.872;2023-01-30T13:33:20;9.20;71.90
17296;DHT22;8766;51.480;6.872;2023-01-30T13:35:51;9.20;72.00
17296;DHT22;8766;51.480;6.872;2023-01-30T13:38:22;9.20;72.00
17296;DHT22;8766;51.480;6.872;2023-01-30T13:40:52;9.20;72.10
17296;DHT22;8766;51.480;6.872;2023-01-30T13:43:23;9.20;72.10
17296;DHT22;8766;51.480;6.872;2023-01-30T13:45:53;9.20;72.10
17296;DHT22;8766;51.480;6.872;2023-01-30T13:48:35;9.20;72.10
17296;DHT22;8766;51.480;6.872;2023-01-30T13:54:27;9.10;72.40
17296;DHT22;8766;51.480;6.872;2023-01-30T13:56:59;9.00;72.40
17296;DHT22;8766;51.480;6.872;2023-01-30T13:59:42;8.90;72.50
17296;DHT22;8766;51.480;6.872;2023-01-30T14:02:27;8.90;72.70
17296;DHT22;8766;51.480;6.872;2023-01-30T14:05:01;8.80;72.70
17296;DHT22;8766;51.480;6.872;2023-01-30T14:07:31;8.90;72.70
17296;DHT22;8766;51.480;6.872;2023-01-30T14:10:40;8.90;72.60
17296;DHT22;8766;51.480;6.872;2023-01-30T14:13:21;8.90;72.60
17296;DHT22;8766;51.480;6.872;2023-01-30T14:15:53;9.00;72.40
17296;DHT22;8766;51.480;6.872;2023-01-30T14:18:22;9.10;72.90
17296;DHT22;8766;51.480;6.872;2023-01-30T14:20:50;9.10;72.10
17296;DHT22;8766;51.480;6.872;2023-01-30T14:23:22;9.10;72.10
17296;DHT22;8766;51.480;6.872;2023-01-30T14:25:52;9.20;72.10
17296;DHT22;8766;51.480;6.872;2023-01-30T14:28:47;9.20;71.90
17296;DHT22;8766;51.480;6.872;2023-01-30T14:31:50;9.20;71.90
17296;DHT22;8766;51.480;6.872;2023-01-30T14:34:46;9.20;72.00
17296;DHT22;8766;51.480;6.872;2023-01-30T14:37:27;9.20;71.90
17296;DHT22;8766;51.480;6.872;2023-01-30T14:39:56;9.20;72.00
17296;DHT22;8766;51.480;6.872;2023-01-30T14:42:27;9.10;71.90
17296;DHT22;8766;51.480;6.872;2023-01-30T14:45:02;9.10;72.00
17296;DHT22;8766;51.480;6.872;2023-01-30T14:47:30;9.10;72.00
17296;DHT22;8766;51.480;6.872;2023-01-30T14:49:58;9.20;71.90
17296;DHT22;8766;51.480;6.872;2023-01-30T14:52:35;9.10;71.90
17296;DHT22;8766;51.480;6.872;2023-01-30T14:55:03;9.10;72.10
17296;DHT22;8766;51.480;6.872;2023-01-30T14:57:32;9.00;72.30
17296;DHT22;8766;51.480;6.872;2023-01-30T15:00:04;8.90;72.40
17296;DHT22;8766;51.480;6.872;2023-01-30T15:02:33;8.80;72.60
17296;DHT22;8766;51.480;6.872;2023-01-30T15:05:05;8.80;72.70
17296;DHT22;8766;51.480;6.872;2023-01-30T15:07:38;8.80;72.90
17296;DHT22;8766;51.480;6.872;2023-01-30T15:10:19;8.70;72.90
17296;DHT22;8766;51.480;6.872;2023-01-30T15:15:59;8.70;73.00
17296;DHT22;8766;51.480;6.872;2023-01-30T15:18:39;8.70;73.00
17296;DHT22;8766;51.480;6.872;2023-01-30T15:21:24;8.60;72.90
17296;DHT22;8766;51.480;6.872;2023-01-30T15:24:06;8.60;73.10
17296;DHT22;8766;51.480;6.872;2023-01-30T15:26:47;8.50;73.20
17296;DHT22;8766;51.480;6.872;2023-01-30T15:32:29;8.40;73.50
17296;DHT22;8766;51.480;6.872;2023-01-30T15:34:58;8.40;73.50
17296;DHT22;8766;51.480;6.872;2023-01-30T15:37:33;8.40;73.40
17296;DHT22;8766;51.480;6.872;2023-01-30T15:40:11;8.40;73.30
17296;DHT22;8766;51.480;6.872;2023-01-30T15:43:06;8.50;73.20
17296;DHT22;8766;51.480;6.872;2023-01-30T15:45:43;8.50;73.10
17296;DHT22;8766;51.480;6.872;2023-01-30T15:48:29;8.50;73.00
17296;DHT22;8766;51.480;6.872;2023-01-30T15:50:59;8.50;73.00
17296;DHT22;8766;51.480;6.872;2023-01-30T15:53:29;8.50;72.90
17296;DHT22;8766;51.480;6.872;2023-01-30T15:55:57;8.50;72.90
17296;DHT22;8766;51.480;6.872;2023-01-30T15:58:26;8.50;72.90
17296;DHT22;8766;51.480;6.872;2023-01-30T16:00:55;8.50;73.00
17296;DHT22;8766;51.480;6.872;2023-01-30T16:03:28;8.50;73.00
17296;DHT22;8766;51.480;6.872;2023-01-30T16:05:58;8.50;73.00
17296;DHT22;8766;51.480;6.872;2023-01-30T16:08:27;8.50;73.00
17296;DHT22;8766;51.480;6.872;2023-01-30T16:10:54;8.40;73.00
17296;DHT22;8766;51.480;6.872;2023-01-30T16:13:22;8.40;73.10
17296;DHT22;8766;51.480;6.872;2023-01-30T16:15:53;8.40;73.10
17296;DHT22;8766;51.480;6.872;2023-01-30T16:18:28;8.40;73.20
17296;DHT22;8766;51.480;6.872;2023-01-30T16:20:57;8.40;73.10
17296;DHT22;8766;51.480;6.872;2023-01-30T16:23:28;8.40;73.10
17296;DHT22;8766;51.480;6.872;2023-01-30T16:25:56;8.40;73.70
17296;DHT22;8766;51.480;6.872;2023-01-30T16:28:26;8.40;73.10
17296;DHT22;8766;51.480;6.872;2023-01-30T16:30:57;8.40;73.10
17296;DHT22;8766;51.480;6.872;2023-01-30T16:33:26;8.40;73.10
17296;DHT22;8766;51.480;6.872;2023-01-30T16:36:00;8.40;73.10
17296;DHT22;8766;51.480;6.872;2023-01-30T16:38:35;8.40;73.20
17296;DHT22;8766;51.480;6.872;2023-01-30T16:41:02;8.40;73.20
17296;DHT22;8766;51.480;6.872;2023-01-30T16:43:30;8.40;73.20
17296;DHT22;8766;51.480;6.872;2023-01-30T16:49:19;8.30;73.30
17296;DHT22;8766;51.480;6.872;2023-01-30T16:51:46;8.30;73.30
17296;DHT22;8766;51.480;6.872;2023-01-30T16:54:18;8.30;73.30
17296;DHT22;8766;51.480;6.872;2023-01-30T16:56:49;8.20;73.30
17296;DHT22;8766;51.480;6.872;2023-01-30T16:59:19;8.20;73.40
17296;DHT22;8766;51.480;6.872;2023-01-30T17:01:46;8.20;73.50